sensor_id;sensor_type;location;lat;lon;timestamp;P1;durP1;ratioP1;P2;durP2;ratioP2
24567;SDS011;12731;52.182;8.716;2023-04-01T00:01:12;3.13;;;2.47;;
24567;SDS011;12731;52.182;8.716;2023-04-01T00:03:42;5.10;;;2.20;;
24567;SDS011;12731;52.182;8.716;2023-04-01T00:06:11;3.95;;;2.30;;
24567;SDS011;12731;52.182;8.716;2023-04-01T00:08:39;6.25;;;2.22;;
24567;SDS011;12731;52.182;8.716;2023-04-01T00:11:05;6.22;;;2.72;;
24567;SDS011;12731;52.182;8.716;2023-04-01T00:13:32;4.95;;;2.70;;
24567;SDS011;12731;52.182;8.716;2023-04-01T00:15:58;4.97;;;2.20;;
24567;SDS011;12731;52.182;8.716;2023-04-01T00:18:25;2.92;;;2.08;;
24567;SDS011;12731;52.182;8.716;2023-04-01T00:20:52;3.42;;;2.15;;
24567;SDS011;12731;52.182;8.716;2023-04-01T00:23:19;4.32;;;2.40;;
24567;SDS011;12731;52.182;8.716;2023-04-01T00:25:46;3.15;;;2.10;;
24567;SDS011;12731;52.182;8.716;2023-04-01T00:28:15;2.90;;;2.00;;
24567;SDS011;12731;52.182;8.716;2023-04-01T00:30:43;4.72;;;2.15;;
24567;SDS011;12731;52.182;8.716;2023-04-01T00:33:09;3.95;;;2.17;;
24567;SDS011;12731;52.182;8.716;2023-04-01T00:35:36;5.75;;;2.50;;
24567;SDS011;12731;52.182;8.716;2023-04-01T00:38:03;3.85;;;1.50;;
24567;SDS011;12731;52.182;8.716;2023-04-01T00:40:31;3.63;;;1.60;;
24567;SDS011;12731;52.182;8.716;2023-04-01T00:42:59;6.38;;;1.67;;
24567;SDS011;12731;52.182;8.716;2023-04-01T00:45:36;3.47;;;1.52;;
24567;SDS011;12731;52.182;8.716;2023-04-01T00:48:06;2.65;;;1.42;;
24567;SDS011;12731;52.182;8.716;2023-04-01T00:50:34;5.78;;;1.40;;
24567;SDS011;12731;52.182;8.716;2023-04-01T00:53:02;5.28;;;1.23;;
24567;SDS011;12731;52.182;8.716;2023-04-01T00:55:29;3.05;;;1.20;;
24567;SDS011;12731;52.182;8.716;2023-04-01T00:57:58;3.10;;;1.27;;
24567;SDS011;12731;52.182;8.716;2023-04-01T01:00:26;3.35;;;1.17;;
24567;SDS011;12731;52.182;8.716;2023-04-01T01:02:52;2.78;;;1.08;;
24567;SDS011;12731;52.182;8.716;2023-04-01T01:05:20;2.08;;;1.05;;
24567;SDS011;12731;52.182;8.716;2023-04-01T01:07:57;3.88;;;0.90;;
24567;SDS011;12731;52.182;8.716;2023-04-01T01:10:31;4.30;;;1.15;;
24567;SDS011;12731;52.182;8.716;2023-04-01T01:15:46;2.60;;;1.10;;
24567;SDS011;12731;52.182;8.716;2023-04-01T01:18:21;3.22;;;1.40;;
24567;SDS011;12731;52.182;8.716;2023-04-01T01:29:10;2.67;;;0.80;;
24567;SDS011;12731;52.182;8.716;2023-04-01T01:32:01;3.15;;;1.20;;
24567;SDS011;12731;52.182;8.716;2023-04-01T01:37:18;3.75;;;1.10;;
24567;SDS011;12731;52.182;8.716;2023-04-01T01:39:48;1.48;;;0.90;;
24567;SDS011;12731;52.182;8.716;2023-04-01T01:42:18;3.65;;;0.98;;
24567;SDS011;12731;52.182;8.716;2023-04-01T01:44:45;4.50;;;1.10;;
24567;SDS011;12731;52.182;8.716;2023-04-01T01:47:13;3.70;;;1.48;;
24567;SDS011;12731;52.182;8.716;2023-04-01T01:49:40;6.70;;;1.23;;
24567;SDS011;12731;52.182;8.716;2023-04-01T01:52:08;3.58;;;1.00;;
24567;SDS011;12731;52.182;8.716;2023-04-01T01:54:34;1.15;;;0.80;;
24567;SDS011;12731;52.182;8.716;2023-04-01T01:57:07;2.28;;;0.70;;
24567;SDS011;12731;52.182;8.716;2023-04-01T01:59:35;4.32;;;1.10;;
24567;SDS011;12731;52.182;8.716;2023-04-01T02:02:03;2.67;;;0.77;;
24567;SDS011;12731;52.182;8.716;2023-04-01T02:04:34;2.08;;;0.90;;
24567;SDS011;12731;52.182;8.716;2023-04-01T02:07:02;1.83;;;0.90;;
24567;SDS011;12731;52.182;8.716;2023-04-01T02:09:31;2.28;;;0.80;;
24567;SDS011;12731;52.182;8.716;2023-04-01T02:12:07;1.85;;;0.95;;
24567;SDS011;12731;52.182;8.716;2023-04-01T02:17:15;3.00;;;0.77;;
24567;SDS011;12731;52.182;8.716;2023-04-01T02:19:48;3.80;;;0.80;;
24567;SDS011;12731;52.182;8.716;2023-04-01T02:22:18;2.53;;;0.90;;
24567;SDS011;12731;52.182;8.716;2023-04-01T02:24:47;1.90;;;0.60;;
24567;SDS011;12731;52.182;8.716;2023-04-01T02:27:15;3.10;;;0.75;;
24567;SDS011;12731;52.182;8.716;2023-04-01T02:29:42;1.02;;;0.73;;
24567;SDS011;12731;52.182;8.716;2023-04-01T02:32:08;3.00;;;0.80;;
24567;SDS011;12731;52.182;8.716;2023-04-01T02:34:35;3.08;;;0.90;;
24567;SDS011;12731;52.182;8.716;2023-04-01T02:37:02;3.08;;;0.70;;
24567;SDS011;12731;52.182;8.716;2023-04-01T02:39:29;1.60;;;0.60;;
24567;SDS011;12731;52.182;8.716;2023-04-01T02:41:55;2.40;;;0.82;;
24567;SDS011;12731;52.182;8.716;2023-04-01T02:44:22;2.40;;;0.73;;
24567;SDS011;12731;52.182;8.716;2023-04-01T02:46:48;1.95;;;0.70;;
24567;SDS011;12731;52.182;8.716;2023-04-01T02:49:15;2.60;;;0.60;;
24567;SDS011;12731;52.182;8.716;2023-04-01T02:51:42;3.15;;;0.70;;
24567;SDS011;12731;52.182;8.716;2023-04-01T02:54:08;3.97;;;0.80;;
24567;SDS011;12731;52.182;8.716;2023-04-01T02:56:34;1.40;;;0.80;;
24567;SDS011;12731;52.182;8.716;2023-04-01T02:59:01;1.38;;;0.70;;
24567;SDS011;12731;52.182;8.716;2023-04-01T03:01:28;2.00;;;0.60;;
24567;SDS011;12731;52.182;8.716;2023-04-01T03:03:54;2.53;;;0.88;;
24567;SDS011;12731;52.182;8.716;2023-04-01T03:06:21;1.63;;;0.60;;
24567;SDS011;12731;52.182;8.716;2023-04-01T03:08:47;3.22;;;0.95;;
24567;SDS011;12731;52.182;8.716;2023-04-01T03:11:14;2.00;;;0.60;;
24567;SDS011;12731;52.182;8.716;2023-04-01T03:13:40;1.38;;;0.63;;
24567;SDS011;12731;52.182;8.716;2023-04-01T03:16:07;3.35;;;0.73;;
24567;SDS011;12731;52.182;8.716;2023-04-01T03:18:33;2.30;;;0.70;;
24567;SDS011;12731;52.182;8.716;2023-04-01T03:21:16;2.42;;;0.65;;
24567;SDS011;12731;52.182;8.716;2023-04-01T03:23:44;1.88;;;0.60;;
24567;SDS011;12731;52.182;8.716;2023-04-01T03:26:10;0.88;;;0.52;;
24567;SDS011;12731;52.182;8.716;2023-04-01T03:28:37;1.38;;;0.52;;
24567;SDS011;12731;52.182;8.716;2023-04-01T03:31:03;2.92;;;0.88;;
24567;SDS011;12731;52.182;8.716;2023-04-01T03:33:30;3.75;;;0.60;;
24567;SDS011;12731;52.182;8.716;2023-04-01T03:35:57;1.00;;;0.50;;
24567;SDS011;12731;52.182;8.716;2023-04-01T03:38:24;3.00;;;0.70;;
24567;SDS011;12731;52.182;8.716;2023-04-01T03:40:50;0.80;;;0.60;;
24567;SDS011;12731;52.182;8.716;2023-04-01T03:43:17;1.35;;;0.55;;
24567;SDS011;12731;52.182;8.716;2023-04-01T03:45:47;0.93;;;0.50;;
24567;SDS011;12731;52.182;8.716;2023-04-01T03:48:14;1.20;;;0.70;;
24567;SDS011;12731;52.182;8.716;2023-04-01T03:50:41;2.60;;;0.60;;
24567;SDS011;12731;52.182;8.716;2023-04-01T03:53:08;3.78;;;0.80;;
24567;SDS011;12731;52.182;8.716;2023-04-01T03:55:37;1.95;;;0.70;;
24567;SDS011;12731;52.182;8.716;2023-04-01T03:58:04;2.92;;;0.60;;
24567;SDS011;12731;52.182;8.716;2023-04-01T04:00:31;0.73;;;0.50;;
24567;SDS011;12731;52.182;8.716;2023-04-01T04:02:58;1.17;;;0.43;;
24567;SDS011;12731;52.182;8.716;2023-04-01T04:05:25;2.00;;;0.40;;
24567;SDS011;12731;52.182;8.716;2023-04-01T04:07:52;0.80;;;0.60;;
24567;SDS011;12731;52.182;8.716;2023-04-01T04:10:19;3.00;;;0.82;;
24567;SDS011;12731;52.182;8.716;2023-04-01T04:12:45;3.10;;;0.60;;
24567;SDS011;12731;52.182;8.716;2023-04-01T04:15:12;1.65;;;0.45;;
24567;SDS011;12731;52.182;8.716;2023-04-01T04:17:38;1.85;;;0.60;;
24567;SDS011;12731;52.182;8.716;2023-04-01T04:20:05;1.52;;;0.47;;
24567;SDS011;12731;52.182;8.716;2023-04-01T04:22:32;1.27;;;0.50;;
24567;SDS011;12731;52.182;8.716;2023-04-01T04:24:58;1.63;;;0.50;;
24567;SDS011;12731;52.182;8.716;2023-04-01T04:27:24;2.97;;;0.73;;
24567;SDS011;12731;52.182;8.716;2023-04-01T04:29:51;1.60;;;0.70;;
24567;SDS011;12731;52.182;8.716;2023-04-01T04:32:17;2.35;;;0.60;;
24567;SDS011;12731;52.182;8.716;2023-04-01T04:34:44;0.65;;;0.43;;
24567;SDS011;12731;52.182;8.716;2023-04-01T04:37:10;3.05;;;0.60;;
24567;SDS011;12731;52.182;8.716;2023-04-01T04:39:37;3.08;;;0.60;;
24567;SDS011;12731;52.182;8.716;2023-04-01T04:42:03;0.82;;;0.50;;
24567;SDS011;12731;52.182;8.716;2023-04-01T04:44:30;2.05;;;0.70;;
24567;SDS011;12731;52.182;8.716;2023-04-01T04:46:56;2.65;;;0.60;;
24567;SDS011;12731;52.182;8.716;2023-04-01T04:49:23;0.68;;;0.40;;
24567;SDS011;12731;52.182;8.716;2023-04-01T04:51:50;2.22;;;0.70;;
24567;SDS011;12731;52.182;8.716;2023-04-01T04:54:18;1.30;;;0.60;;
24567;SDS011;12731;52.182;8.716;2023-04-01T04:56:44;1.58;;;0.82;;
24567;SDS011;12731;52.182;8.716;2023-04-01T04:59:11;2.15;;;0.77;;
24567;SDS011;12731;52.182;8.716;2023-04-01T05:01:38;1.08;;;0.55;;
24567;SDS011;12731;52.182;8.716;2023-04-01T05:04:05;1.40;;;0.50;;
24567;SDS011;12731;52.182;8.716;2023-04-01T05:06:31;1.52;;;0.65;;
24567;SDS011;12731;52.182;8.716;2023-04-01T05:08:58;1.60;;;0.50;;
24567;SDS011;12731;52.182;8.716;2023-04-01T05:11:24;2.83;;;0.68;;
24567;SDS011;12731;52.182;8.716;2023-04-01T05:13:52;0.52;;;0.45;;
24567;SDS011;12731;52.182;8.716;2023-04-01T05:16:19;1.45;;;0.60;;
24567;SDS011;12731;52.182;8.716;2023-04-01T05:18:46;1.92;;;0.50;;
24567;SDS011;12731;52.182;8.716;2023-04-01T05:21:13;1.35;;;0.43;;
24567;SDS011;12731;52.182;8.716;2023-04-01T05:23:40;1.15;;;0.63;;
24567;SDS011;12731;52.182;8.716;2023-04-01T05:26:09;0.73;;;0.57;;
24567;SDS011;12731;52.182;8.716;2023-04-01T05:28:37;1.70;;;0.60;;
24567;SDS011;12731;52.182;8.716;2023-04-01T05:31:04;0.95;;;0.47;;
24567;SDS011;12731;52.182;8.716;2023-04-01T05:33:32;1.25;;;0.50;;
24567;SDS011;12731;52.182;8.716;2023-04-01T05:36:05;1.40;;;0.60;;
24567;SDS011;12731;52.182;8.716;2023-04-01T05:38:32;0.65;;;0.57;;
24567;SDS011;12731;52.182;8.716;2023-04-01T05:41:00;0.47;;;0.38;;
24567;SDS011;12731;52.182;8.716;2023-04-01T05:43:27;1.23;;;0.45;;
24567;SDS011;12731;52.182;8.716;2023-04-01T05:45:54;2.58;;;0.70;;
24567;SDS011;12731;52.182;8.716;2023-04-01T05:48:20;1.70;;;0.60;;
24567;SDS011;12731;52.182;8.716;2023-04-01T05:50:47;2.72;;;0.50;;
24567;SDS011;12731;52.182;8.716;2023-04-01T05:53:13;0.90;;;0.40;;
24567;SDS011;12731;52.182;8.716;2023-04-01T05:55:40;0.95;;;0.50;;
24567;SDS011;12731;52.182;8.716;2023-04-01T05:58:06;1.50;;;0.73;;
24567;SDS011;12731;52.182;8.716;2023-04-01T06:00:33;0.77;;;0.30;;
24567;SDS011;12731;52.182;8.716;2023-04-01T06:02:59;2.72;;;0.60;;
24567;SDS011;12731;52.182;8.716;2023-04-01T06:05:30;0.70;;;0.60;;
24567;SDS011;12731;52.182;8.716;2023-04-01T06:08:01;1.25;;;0.50;;
24567;SDS011;12731;52.182;8.716;2023-04-01T06:10:38;1.38;;;0.63;;
24567;SDS011;12731;52.182;8.716;2023-04-01T06:18:54;0.90;;;0.60;;
24567;SDS011;12731;52.182;8.716;2023-04-01T06:21:37;0.70;;;0.60;;
24567;SDS011;12731;52.182;8.716;2023-04-01T06:40:47;0.32;;;0.32;;
24567;SDS011;12731;52.182;8.716;2023-04-01T06:49:02;2.47;;;0.73;;
24567;SDS011;12731;52.182;8.716;2023-04-01T06:51:36;2.47;;;0.60;;
24567;SDS011;12731;52.182;8.716;2023-04-01T06:54:10;1.15;;;0.60;;
24567;SDS011;12731;52.182;8.716;2023-04-01T06:56:40;0.45;;;0.45;;
24567;SDS011;12731;52.182;8.716;2023-04-01T06:59:12;2.00;;;0.50;;
24567;SDS011;12731;52.182;8.716;2023-04-01T07:01:42;1.35;;;0.60;;
24567;SDS011;12731;52.182;8.716;2023-04-01T07:04:17;1.35;;;0.50;;
24567;SDS011;12731;52.182;8.716;2023-04-01T07:06:48;2.65;;;0.50;;
24567;SDS011;12731;52.182;8.716;2023-04-01T07:11:47;1.05;;;0.60;;
24567;SDS011;12731;52.182;8.716;2023-04-01T07:17:06;0.93;;;0.50;;
24567;SDS011;12731;52.182;8.716;2023-04-01T07:22:26;0.52;;;0.40;;
24567;SDS011;12731;52.182;8.716;2023-04-01T07:24:56;0.52;;;0.50;;
24567;SDS011;12731;52.182;8.716;2023-04-01T07:27:24;0.70;;;0.40;;
24567;SDS011;12731;52.182;8.716;2023-04-01T07:29:50;2.58;;;0.50;;
24567;SDS011;12731;52.182;8.716;2023-04-01T07:35:04;0.80;;;0.60;;
24567;SDS011;12731;52.182;8.716;2023-04-01T07:37:54;2.20;;;0.52;;
24567;SDS011;12731;52.182;8.716;2023-04-01T07:46:25;1.92;;;0.60;;
24567;SDS011;12731;52.182;8.716;2023-04-01T07:51:56;1.40;;;0.55;;
24567;SDS011;12731;52.182;8.716;2023-04-01T07:54:41;1.13;;;0.60;;
24567;SDS011;12731;52.182;8.716;2023-04-01T07:57:23;1.45;;;0.68;;
24567;SDS011;12731;52.182;8.716;2023-04-01T08:06:03;1.10;;;0.77;;
24567;SDS011;12731;52.182;8.716;2023-04-01T08:11:25;1.60;;;0.88;;
24567;SDS011;12731;52.182;8.716;2023-04-01T08:16:31;1.67;;;0.60;;
24567;SDS011;12731;52.182;8.716;2023-04-01T08:21:57;1.48;;;0.63;;
24567;SDS011;12731;52.182;8.716;2023-04-01T08:24:43;0.75;;;0.60;;
24567;SDS011;12731;52.182;8.716;2023-04-01T08:27:24;1.25;;;0.73;;
24567;SDS011;12731;52.182;8.716;2023-04-01T08:29:59;1.00;;;0.70;;
24567;SDS011;12731;52.182;8.716;2023-04-01T08:32:44;2.22;;;0.88;;
24567;SDS011;12731;52.182;8.716;2023-04-01T08:35:31;1.27;;;0.60;;
24567;SDS011;12731;52.182;8.716;2023-04-01T08:38:10;1.45;;;0.60;;
24567;SDS011;12731;52.182;8.716;2023-04-01T08:40:50;0.50;;;0.50;;
24567;SDS011;12731;52.182;8.716;2023-04-01T08:57:11;1.15;;;0.90;;
24567;SDS011;12731;52.182;8.716;2023-04-01T08:59:46;2.67;;;0.90;;
24567;SDS011;12731;52.182;8.716;2023-04-01T09:02:26;1.65;;;1.10;;
24567;SDS011;12731;52.182;8.716;2023-04-01T09:07:57;1.25;;;1.00;;
24567;SDS011;12731;52.182;8.716;2023-04-01T09:29:01;3.45;;;1.23;;
24567;SDS011;12731;52.182;8.716;2023-04-01T09:36:46;1.87;;;0.90;;
24567;SDS011;12731;52.182;8.716;2023-04-01T09:44:59;1.55;;;1.10;;
24567;SDS011;12731;52.182;8.716;2023-04-01T09:55:21;0.77;;;0.77;;
24567;SDS011;12731;52.182;8.716;2023-04-01T09:58:15;1.63;;;1.00;;
24567;SDS011;12731;52.182;8.716;2023-04-01T10:00:55;1.70;;;1.25;;
24567;SDS011;12731;52.182;8.716;2023-04-01T10:03:34;1.08;;;0.98;;
24567;SDS011;12731;52.182;8.716;2023-04-01T10:17:40;1.20;;;1.10;;
24567;SDS011;12731;52.182;8.716;2023-04-01T10:28:45;1.02;;;0.90;;
24567;SDS011;12731;52.182;8.716;2023-04-01T10:31:23;2.08;;;1.00;;
24567;SDS011;12731;52.182;8.716;2023-04-01T10:37:08;1.05;;;0.75;;
24567;SDS011;12731;52.182;8.716;2023-04-01T10:40:24;0.80;;;0.80;;
24567;SDS011;12731;52.182;8.716;2023-04-01T10:43:24;1.00;;;0.77;;
24567;SDS011;12731;52.182;8.716;2023-04-01T10:52:11;1.23;;;0.75;;
24567;SDS011;12731;52.182;8.716;2023-04-01T10:54:45;0.70;;;0.70;;
24567;SDS011;12731;52.182;8.716;2023-04-01T11:00:01;0.80;;;0.70;;
24567;SDS011;12731;52.182;8.716;2023-04-01T11:28:16;0.32;;;0.30;;
24567;SDS011;12731;52.182;8.716;2023-04-01T11:39:11;0.32;;;0.32;;
24567;SDS011;12731;52.182;8.716;2023-04-01T11:42:01;0.50;;;0.30;;
24567;SDS011;12731;52.182;8.716;2023-04-01T11:44:33;0.80;;;0.30;;
24567;SDS011;12731;52.182;8.716;2023-04-01T11:58:23;1.05;;;0.60;;
24567;SDS011;12731;52.182;8.716;2023-04-01T12:00:59;1.08;;;0.50;;
24567;SDS011;12731;52.182;8.716;2023-04-01T12:03:41;1.05;;;0.50;;
24567;SDS011;12731;52.182;8.716;2023-04-01T12:11:49;1.95;;;0.60;;
24567;SDS011;12731;52.182;8.716;2023-04-01T12:14:43;1.23;;;0.80;;
24567;SDS011;12731;52.182;8.716;2023-04-01T12:17:29;0.77;;;0.60;;
24567;SDS011;12731;52.182;8.716;2023-04-01T12:25:57;0.45;;;0.40;;
24567;SDS011;12731;52.182;8.716;2023-04-01T12:51:35;1.38;;;1.00;;
24567;SDS011;12731;52.182;8.716;2023-04-01T12:54:17;1.10;;;1.00;;
24567;SDS011;12731;52.182;8.716;2023-04-01T12:59:51;1.52;;;1.10;;
24567;SDS011;12731;52.182;8.716;2023-04-01T13:08:36;1.65;;;1.00;;
24567;SDS011;12731;52.182;8.716;2023-04-01T13:13:57;2.22;;;1.25;;
24567;SDS011;12731;52.182;8.716;2023-04-01T13:17:07;3.65;;;1.50;;
24567;SDS011;12731;52.182;8.716;2023-04-01T13:28:00;0.88;;;0.80;;
24567;SDS011;12731;52.182;8.716;2023-04-01T13:30:35;0.75;;;0.70;;
24567;SDS011;12731;52.182;8.716;2023-04-01T13:33:21;0.52;;;0.52;;
24567;SDS011;12731;52.182;8.716;2023-04-01T13:36:03;0.88;;;0.70;;
24567;SDS011;12731;52.182;8.716;2023-04-01T13:47:11;4.38;;;2.10;;
24567;SDS011;12731;52.182;8.716;2023-04-01T13:57:59;1.15;;;1.00;;
24567;SDS011;12731;52.182;8.716;2023-04-01T14:20:18;1.65;;;1.33;;
24567;SDS011;12731;52.182;8.716;2023-04-01T14:25:41;1.35;;;1.08;;
24567;SDS011;12731;52.182;8.716;2023-04-01T14:28:30;1.38;;;1.10;;
24567;SDS011;12731;52.182;8.716;2023-04-01T14:31:15;1.20;;;1.10;;
24567;SDS011;12731;52.182;8.716;2023-04-01T14:39:29;2.83;;;2.53;;
24567;SDS011;12731;52.182;8.716;2023-04-01T14:45:02;3.08;;;1.58;;
24567;SDS011;12731;52.182;8.716;2023-04-01T14:47:58;2.42;;;1.40;;
24567;SDS011;12731;52.182;8.716;2023-04-01T14:50:42;2.80;;;1.70;;
24567;SDS011;12731;52.182;8.716;2023-04-01T14:55:54;2.38;;;2.17;;
24567;SDS011;12731;52.182;8.716;2023-04-01T14:58:44;2.97;;;2.78;;
24567;SDS011;12731;52.182;8.716;2023-04-01T15:01:16;2.22;;;2.03;;
24567;SDS011;12731;52.182;8.716;2023-04-01T15:11:54;2.13;;;0.90;;
24567;SDS011;12731;52.182;8.716;2023-04-01T15:17:26;1.42;;;0.90;;
24567;SDS011;12731;52.182;8.716;2023-04-01T15:36:33;1.27;;;0.70;;
24567;SDS011;12731;52.182;8.716;2023-04-01T15:39:13;0.80;;;0.60;;
24567;SDS011;12731;52.182;8.716;2023-04-01T15:44:41;0.88;;;0.80;;
24567;SDS011;12731;52.182;8.716;2023-04-01T15:52:43;1.10;;;0.90;;
24567;SDS011;12731;52.182;8.716;2023-04-01T15:55:20;1.73;;;0.90;;
24567;SDS011;12731;52.182;8.716;2023-04-01T15:58:22;1.05;;;0.88;;
24567;SDS011;12731;52.182;8.716;2023-04-01T16:01:01;1.48;;;1.25;;
24567;SDS011;12731;52.182;8.716;2023-04-01T16:03:37;1.40;;;1.02;;
24567;SDS011;12731;52.182;8.716;2023-04-01T16:10:06;4.03;;;2.10;;
24567;SDS011;12731;52.182;8.716;2023-04-01T16:12:15;1.65;;;1.48;;
24567;SDS011;12731;52.182;8.716;2023-04-01T16:20:19;3.25;;;2.15;;
24567;SDS011;12731;52.182;8.716;2023-04-01T16:23:10;3.00;;;2.60;;
24567;SDS011;12731;52.182;8.716;2023-04-01T16:25:41;2.72;;;2.35;;
24567;SDS011;12731;52.182;8.716;2023-04-01T16:31:09;2.78;;;2.58;;
24567;SDS011;12731;52.182;8.716;2023-04-01T16:33:52;3.20;;;2.90;;
24567;SDS011;12731;52.182;8.716;2023-04-01T16:36:41;2.80;;;2.60;;
24567;SDS011;12731;52.182;8.716;2023-04-01T16:44:49;2.58;;;2.38;;
24567;SDS011;12731;52.182;8.716;2023-04-01T16:47:23;2.72;;;2.53;;
24567;SDS011;12731;52.182;8.716;2023-04-01T16:49:58;2.75;;;2.55;;
24567;SDS011;12731;52.182;8.716;2023-04-01T16:52:34;2.95;;;2.53;;
24567;SDS011;12731;52.182;8.716;2023-04-01T16:55:03;2.42;;;2.20;;
24567;SDS011;12731;52.182;8.716;2023-04-01T17:02:47;2.40;;;2.20;;
24567;SDS011;12731;52.182;8.716;2023-04-01T17:05:18;3.30;;;3.00;;
24567;SDS011;12731;52.182;8.716;2023-04-01T17:13:25;1.80;;;1.70;;
24567;SDS011;12731;52.182;8.716;2023-04-01T17:19:04;2.20;;;2.00;;
24567;SDS011;12731;52.182;8.716;2023-04-01T17:21:47;2.00;;;1.90;;
24567;SDS011;12731;52.182;8.716;2023-04-01T17:27:12;2.47;;;2.28;;
24567;SDS011;12731;52.182;8.716;2023-04-01T17:35:19;1.55;;;1.45;;
24567;SDS011;12731;52.182;8.716;2023-04-01T17:40:28;1.52;;;1.42;;
24567;SDS011;12731;52.182;8.716;2023-04-01T17:43:22;2.57;;;1.63;;
24567;SDS011;12731;52.182;8.716;2023-04-01T17:45:54;1.60;;;1.50;;
24567;SDS011;12731;52.182;8.716;2023-04-01T17:56:45;2.05;;;1.55;;
24567;SDS011;12731;52.182;8.716;2023-04-01T18:07:38;2.00;;;1.80;;
24567;SDS011;12731;52.182;8.716;2023-04-01T18:10:21;2.30;;;1.80;;
24567;SDS011;12731;52.182;8.716;2023-04-01T18:15:27;2.85;;;2.10;;
24567;SDS011;12731;52.182;8.716;2023-04-01T18:18:24;2.22;;;1.40;;
24567;SDS011;12731;52.182;8.716;2023-04-01T18:21:00;2.38;;;1.70;;
24567;SDS011;12731;52.182;8.716;2023-04-01T18:26:34;3.03;;;1.90;;
24567;SDS011;12731;52.182;8.716;2023-04-01T18:34:53;1.98;;;1.80;;
24567;SDS011;12731;52.182;8.716;2023-04-01T18:37:31;2.72;;;2.28;;
24567;SDS011;12731;52.182;8.716;2023-04-01T18:40:03;2.92;;;2.72;;
24567;SDS011;12731;52.182;8.716;2023-04-01T18:42:44;2.90;;;2.67;;
24567;SDS011;12731;52.182;8.716;2023-04-01T18:48:11;2.47;;;2.28;;
24567;SDS011;12731;52.182;8.716;2023-04-01T18:50:43;2.45;;;2.15;;
24567;SDS011;12731;52.182;8.716;2023-04-01T18:56:09;1.90;;;1.80;;
24567;SDS011;12731;52.182;8.716;2023-04-01T18:59:12;3.00;;;1.90;;
24567;SDS011;12731;52.182;8.716;2023-04-01T19:01:37;2.00;;;1.80;;
24567;SDS011;12731;52.182;8.716;2023-04-01T19:04:26;1.98;;;1.88;;
24567;SDS011;12731;52.182;8.716;2023-04-01T19:06:55;1.77;;;1.67;;
24567;SDS011;12731;52.182;8.716;2023-04-01T19:12:20;2.47;;;2.10;;
24567;SDS011;12731;52.182;8.716;2023-04-01T19:22:48;2.53;;;2.10;;
24567;SDS011;12731;52.182;8.716;2023-04-01T19:31:24;2.30;;;2.10;;
24567;SDS011;12731;52.182;8.716;2023-04-01T19:37:04;2.13;;;2.00;;
24567;SDS011;12731;52.182;8.716;2023-04-01T19:39:47;2.40;;;2.20;;
24567;SDS011;12731;52.182;8.716;2023-04-01T19:42:22;2.25;;;2.10;;
24567;SDS011;12731;52.182;8.716;2023-04-01T19:48:00;2.53;;;2.28;;
24567;SDS011;12731;52.182;8.716;2023-04-01T19:50:34;2.92;;;2.35;;
24567;SDS011;12731;52.182;8.716;2023-04-01T19:53:10;2.70;;;2.50;;
24567;SDS011;12731;52.182;8.716;2023-04-01T19:56:02;2.53;;;2.33;;
24567;SDS011;12731;52.182;8.716;2023-04-01T20:01:47;2.40;;;2.20;;
24567;SDS011;12731;52.182;8.716;2023-04-01T20:04:49;2.58;;;2.38;;
24567;SDS011;12731;52.182;8.716;2023-04-01T20:10:19;2.33;;;1.98;;
24567;SDS011;12731;52.182;8.716;2023-04-01T20:15:58;5.57;;;2.70;;
24567;SDS011;12731;52.182;8.716;2023-04-01T20:21:18;2.30;;;2.10;;
24567;SDS011;12731;52.182;8.716;2023-04-01T20:34:35;2.20;;;2.00;;
24567;SDS011;12731;52.182;8.716;2023-04-01T20:37:21;4.22;;;2.28;;
24567;SDS011;12731;52.182;8.716;2023-04-01T20:43:04;3.40;;;2.30;;
24567;SDS011;12731;52.182;8.716;2023-04-01T20:45:57;4.90;;;2.85;;
24567;SDS011;12731;52.182;8.716;2023-04-01T20:51:04;3.72;;;2.75;;
24567;SDS011;12731;52.182;8.716;2023-04-01T20:53:35;3.92;;;2.83;;
24567;SDS011;12731;52.182;8.716;2023-04-01T21:01:25;3.42;;;2.80;;
24567;SDS011;12731;52.182;8.716;2023-04-01T21:04:27;2.95;;;2.50;;
24567;SDS011;12731;52.182;8.716;2023-04-01T21:07:04;2.92;;;2.70;;
24567;SDS011;12731;52.182;8.716;2023-04-01T21:12:58;3.10;;;2.80;;
24567;SDS011;12731;52.182;8.716;2023-04-01T21:18:23;3.65;;;3.10;;
24567;SDS011;12731;52.182;8.716;2023-04-01T21:32:27;3.25;;;2.50;;
24567;SDS011;12731;52.182;8.716;2023-04-01T21:35:26;3.22;;;2.60;;
24567;SDS011;12731;52.182;8.716;2023-04-01T21:38:00;2.97;;;2.67;;
24567;SDS011;12731;52.182;8.716;2023-04-01T21:40:44;4.32;;;2.97;;
24567;SDS011;12731;52.182;8.716;2023-04-01T21:43:35;2.78;;;2.50;;
24567;SDS011;12731;52.182;8.716;2023-04-01T21:55:08;4.78;;;2.90;;
24567;SDS011;12731;52.182;8.716;2023-04-01T22:03:31;3.30;;;2.90;;
24567;SDS011;12731;52.182;8.716;2023-04-01T22:06:11;2.95;;;2.60;;
24567;SDS011;12731;52.182;8.716;2023-04-01T22:08:44;3.50;;;2.67;;
24567;SDS011;12731;52.182;8.716;2023-04-01T22:11:35;3.63;;;2.92;;
24567;SDS011;12731;52.182;8.716;2023-04-01T22:14:13;3.40;;;3.10;;
24567;SDS011;12731;52.182;8.716;2023-04-01T22:19:59;3.25;;;2.95;;
24567;SDS011;12731;52.182;8.716;2023-04-01T22:25:25;4.57;;;3.42;;
24567;SDS011;12731;52.182;8.716;2023-04-01T22:27:58;5.65;;;3.25;;
24567;SDS011;12731;52.182;8.716;2023-04-01T22:30:29;3.47;;;3.00;;
24567;SDS011;12731;52.182;8.716;2023-04-01T22:33:06;3.58;;;2.80;;
24567;SDS011;12731;52.182;8.716;2023-04-01T22:46:44;3.50;;;3.10;;
24567;SDS011;12731;52.182;8.716;2023-04-01T22:49:18;3.55;;;2.85;;
24567;SDS011;12731;52.182;8.716;2023-04-01T22:55:00;3.92;;;3.08;;
24567;SDS011;12731;52.182;8.716;2023-04-01T23:00:40;3.75;;;3.33;;
24567;SDS011;12731;52.182;8.716;2023-04-01T23:03:01;3.95;;;3.15;;
24567;SDS011;12731;52.182;8.716;2023-04-01T23:05:29;5.00;;;3.13;;
24567;SDS011;12731;52.182;8.716;2023-04-01T23:10:52;5.22;;;3.35;;
24567;SDS011;12731;52.182;8.716;2023-04-01T23:13:25;5.40;;;3.30;;
24567;SDS011;12731;52.182;8.716;2023-04-01T23:15:55;3.70;;;3.30;;
24567;SDS011;12731;52.182;8.716;2023-04-01T23:21:18;4.70;;;3.40;;
24567;SDS011;12731;52.182;8.716;2023-04-01T23:23:56;6.28;;;3.45;;
24567;SDS011;12731;52.182;8.716;2023-04-01T23:29:17;6.43;;;3.13;;
24567;SDS011;12731;52.182;8.716;2023-04-01T23:31:45;5.00;;;3.25;;
24567;SDS011;12731;52.182;8.716;2023-04-01T23:36:43;4.07;;;3.15;;
24567;SDS011;12731;52.182;8.716;2023-04-01T23:41:43;4.72;;;3.33;;
24567;SDS011;12731;52.182;8.716;2023-04-01T23:44:11;3.88;;;3.30;;
24567;SDS011;12731;52.182;8.716;2023-04-01T23:46:39;5.25;;;3.33;;
24567;SDS011;12731;52.182;8.716;2023-04-01T23:49:10;3.22;;;2.83;;
24567;SDS011;12731;52.182;8.716;2023-04-01T23:51:46;4.85;;;3.35;;
24567;SDS011;12731;52.182;8.716;2023-04-01T23:54:25;3.40;;;3.10;;
24567;SDS011;12731;52.182;8.716;2023-04-01T23:56:59;3.42;;;2.72;;
24567;SDS011;12731;52.182;8.716;2023-04-01T23:59:31;5.72;;;3.70;;
